ADDS METAR Data INFO
IDs: Format: Raw Decoded Include TAF

Data at: 2053 UTC 24 Jun 2018

KJXI 242035Z AUTO 18014G20KT 10SM SCT055 SCT110 34/20 A2987 RMK AO2 T03420203
KJXI 242015Z AUTO 16011G18KT 10SM SCT050 SCT065 34/21 A2987 RMK AO2 T03420210
KJXI 241955Z AUTO 15007G15KT 10SM BKN050 BKN065 34/21 A2988 RMK AO2 T03370210
KJXI 241935Z AUTO 18009G15KT 10SM BKN050 33/21 A2988 RMK AO2 T03310210
KJXI 241915Z AUTO 19009G15KT 10SM SCT050 SCT060 SCT120 33/21 A2989 RMK AO2 T03260210
KJXI 241855Z AUTO 18008G14KT 130V200 10SM SCT047 BKN060 33/21 A2990 RMK AO2 T03260208
KJXI 241835Z AUTO 18010G15KT 150V210 10SM SCT045 SCT060 32/21 A2991 RMK AO2 T03190212
KJXI 241815Z AUTO 18011G15KT 10SM SCT044 SCT050 32/21 A2991 RMK AO2 T03210213
KJXI 241755Z AUTO 20006G14KT 150V210 10SM SCT043 SCT050 32/22 A2991 RMK AO2 T03180215 10320 20252
KJXI 241735Z AUTO 16010KT 10SM TS SCT040 SCT050 32/22 A2993 RMK AO2 T03150216
KJXI 241715Z AUTO 19007KT 10SM SCT037 BKN045 BKN050 30/21 A2993 RMK AO2 T03030214
KJXI 241655Z AUTO 00000KT 10SM BKN037 OVC045 30/22 A2995 RMK AO2 T03030219
KJXI 241635Z AUTO 20007KT 10SM BKN035 BKN045 30/22 A2994 RMK AO2 T02960217
KJXI 241615Z AUTO 19007KT 170V230 10SM SCT029 SCT037 SCT044 30/22 A2994 RMK AO2 T02960217
KJXI 241555Z AUTO 17006KT 10SM SCT027 BKN050 29/22 A2994 RMK AO2 T02910224
KJXI 241535Z AUTO 17004KT 10SM TS SCT024 SCT030 OVC050 28/22 A2996 RMK AO2 T02810224
KJXI 241515Z AUTO 25003KT 10SM VCTS SCT024 BKN030 OVC050 28/23 A2996 RMK AO2 LTG DSNT N T02800227
KJXI 241455Z AUTO 00000KT 10SM VCTS BKN024 BKN034 OVC045 28/23 A2996 RMK AO2 LTG DSNT N T02750226
KJXI 241435Z AUTO 21004KT 10SM SCT024 SCT031 BKN037 28/23 A2995 RMK AO2 LTG DSNT NW T02750225
KJXI 241415Z AUTO 20007G14KT 10SM SCT029 BKN040 27/23 A2993 RMK AO2 T02720226
KJXI 241355Z AUTO 20005KT 10SM SCT022 BKN029 OVC038 27/23 A2993 RMK AO2 T02660227
KJXI 241335Z AUTO 19005G14KT 10SM BKN020 OVC029 26/23 A2993 RMK AO2 T02620227
KJXI 241315Z AUTO 19007KT 160V220 10SM OVC018 26/23 A2991 RMK AO2 LTG DSNT N T02620227
KJXI 241255Z AUTO 18007G16KT 10SM OVC018 26/23 A2989 RMK AO2 T02620227
KJXI 241235Z AUTO 16012G19KT 10SM OVC018 26/23 A2985 RMK AO2 T02590227
KJXI 241215Z AUTO 17012G18KT 10SM OVC018 26/23 A2984 RMK AO2 T02550226
KJXI 241155Z AUTO 16012G15KT 10SM OVC018 25/23 A2983 RMK AO2 T02520227
KJXI 241135Z AUTO 17010G17KT 10SM BKN018 25/23 A2983 RMK AO2 T02510227
KJXI 241115Z AUTO 15010G19KT 10SM BKN018 BKN110 25/23 A2982 RMK AO2 T02510227
KJXI 241055Z AUTO 15011G15KT 10SM OVC018 25/23 A2981 RMK AO2 T02520228
KJXI 241035Z AUTO 15009G16KT 10SM SCT018 25/23 A2981 RMK AO2 T02520227
KJXI 241015Z AUTO 14012G20KT 10SM SCT018 25/23 A2980 RMK AO2 T02520227
KJXI 240955Z AUTO 14010G18KT 110V170 10SM SCT020 A2982 RMK AO2
KJXI 240935Z AUTO 15009G14KT 10SM TS SCT020 SCT100 26/23 A2983 RMK AO2 T02550226
KJXI 240915Z AUTO 16010G15KT 10SM SCT020 SCT027 SCT100 26/23 A2983 RMK AO2 T02570227
KJXI 240855Z AUTO 16012G17KT 10SM SCT022 BKN027 26/23 A2983 RMK AO2 T02590227
KJXI 240835Z AUTO 17008KT 10SM BKN026 26/23 A2985 RMK AO2 T02610228
KJXI 240815Z AUTO 18014G19KT 10SM TS OVC026 26/23 A2986 RMK AO2 T02620230
KJXI 240755Z AUTO 19011G17KT 10SM OVC023 26/23 A2986 RMK AO2 T02610231
KJXI 240735Z AUTO 18010G15KT 10SM TS BKN021 26/23 A2986 RMK AO2 T02620232
KJXI 240715Z AUTO 17011G14KT 10SM SCT021 SCT100 27/23 A2986 RMK AO2 T02650232
KJXI 240655Z AUTO 16011G19KT 10SM CLR 27/23 A2986 RMK AO2 T02660231
KJXI 240635Z AUTO 16011G18KT 10SM CLR A2985 RMK AO2
KJXI 240615Z AUTO 17011G18KT 10SM CLR 27/23 A2986 RMK AO2 T02710233
KJXI 240555Z AUTO 17007KT 10SM CLR 27/24 A2986 RMK AO2 T02710235 10335 20271 403440254
KJXI 240535Z AUTO 15006KT 10SM CLR 27/24 A2985 RMK AO2 T02730235
KJXI 240515Z AUTO 16005KT 10SM CLR 28/23 A2986 RMK AO2 T02760233
KJXI 240455Z AUTO 16004KT 10SM CLR 28/23 A2985 RMK AO2 T02800232
KJXI 240435Z AUTO 16005KT 10SM CLR 28/23 A2984 RMK AO2 T02820230
KJXI 240415Z AUTO 15005KT 10SM CLR 29/23 A2983 RMK AO2 T02860228
KJXI 240335Z AUTO 15005KT 10SM CLR 29/22 A2981 RMK AO2 T02900221
KJXI 240315Z AUTO 14005KT 10SM CLR 29/22 A2980 RMK AO2 T02930218
KJXI 240255Z AUTO 14005KT 10SM CLR 29/22 A2980 RMK AO2 T02910215
KJXI 240235Z AUTO 13004KT 10SM CLR 29/22 A2979 RMK AO2 T02850216
KJXI 240215Z AUTO 00000KT 10SM CLR 28/22 A2979 RMK AO2 T02840224
KJXI 240155Z AUTO 00000KT 10SM TS CLR 29/22 A2979 RMK AO2 T02940218
KJXI 240135Z AUTO 00000KT 10SM TS CLR 31/21 A2978 RMK AO2 T03050210
KJXI 240115Z AUTO 00000KT 10SM CLR 31/21 A2978 RMK AO2 T03130208
KJXI 240055Z AUTO 15003KT 10SM CLR 32/21 A2978 RMK AO2 T03200206
KJXI 240035Z AUTO 15004KT 10SM CLR 33/20 A2978 RMK AO2 T03260203
KJXI 240015Z AUTO 15005KT 10SM CLR 33/20 A2978 RMK AO2 T03310199
KJXI 232355Z AUTO 14004KT 10SM CLR 34/20 A2978 RMK AO2 T03350197 10344 20311
KJXI 232335Z AUTO 16006KT 10SM CLR 34/20 A2978 RMK AO2 T03360196
KJXI 232315Z AUTO 15006KT 10SM CLR 34/20 A2978 RMK AO2 T03390202
KJXI 232255Z AUTO 14005KT 10SM CLR 34/20 A2978 RMK AO2 T03410204
KJXI 232235Z AUTO 14005KT 10SM CLR 34/21 A2979 RMK AO2 T03380211
KJXI 232215Z AUTO 15007KT 10SM CLR 33/21 A2980 RMK AO2 T03320211
KJXI 232155Z AUTO 15004KT 10SM SCT049 33/21 A2980 RMK AO2 T03280214
KJXI 232135Z AUTO 16006KT 10SM SCT049 34/22 A2980 RMK AO2 T03350216
KJXI 232055Z AUTO 16008KT 10SM SCT045 SCT090 34/22 A2981 RMK AO2 T03380219
KJXI 232035Z AUTO 16009G14KT 10SM SCT045 33/22 A2981 RMK AO2 T03340220
KJXI 232015Z AUTO 18007KT 10SM BKN043 33/22 A2982 RMK AO2 T03340222
KJXI 231955Z AUTO 19009G14KT 10SM SCT039 33/23 A2983 RMK AO2 T03300225
KJXI 231935Z AUTO 14008KT 10SM SCT039 SCT095 33/23 A2983 RMK AO2 T03280228
KJXI 231915Z AUTO 15008KT 100V170 10SM SCT036 32/23 A2984 RMK AO2 T03200227
KJXI 231855Z AUTO 17010KT 110V170 10SM BKN036 32/23 A2985 RMK AO2 T03190229
KJXI 231835Z AUTO 14007KT 10SM BKN034 BKN110 31/23 A2986 RMK AO2 T03140226
KJXI 231815Z AUTO 14006KT 10SM BKN034 31/23 A2987 RMK AO2 T03110227
KJXI 231755Z AUTO 20006KT 10SM BKN034 32/23 A2987 RMK AO2 T03160227 10317 20255
KJXI 231735Z AUTO 16005KT 10SM TS BKN034 BKN100 30/23 A2989 RMK AO2 T03040225
KJXI 231715Z AUTO 13003KT 10SM SCT031 SCT037 31/23 A2990 RMK AO2 T03060226
KJXI 231655Z AUTO 17005KT 10SM BKN033 31/23 A2990 RMK AO2 T03090226
KJXI 231635Z AUTO 13003KT 10SM BKN030 OVC036 30/22 A2991 RMK AO2 T02950223
KJXI 231615Z AUTO 00000KT 10SM BKN028 BKN037 29/23 A2992 RMK AO2 T02920226
KJXI 231535Z AUTO 17003KT 10SM TS BKN022 BKN026 BKN080 29/23 A2992 RMK AO2 T02860229
KJXI 231515Z AUTO 36003KT 10SM SCT020 SCT028 BKN085 28/23 A2993 RMK AO2 T02810231
KJXI 231455Z AUTO 00000KT 10SM SCT046 SCT070 BKN080 28/23 A2993 RMK AO2 T02770227
KJXI 231435Z AUTO 00000KT 10SM SCT018 BKN045 OVC060 27/23 A2993 RMK AO2 T02700234
KJXI 231415Z AUTO 00000KT 10SM BKN018 BKN024 OVC045 26/24 A2993 RMK AO2 LTG DSNT N T02620235
KJXI 231355Z AUTO 00000KT 10SM BKN015 BKN022 OVC043 26/23 A2991 RMK AO2 LTG DSNT N T02610234
KJXI 231335Z AUTO 00000KT 10SM BKN015 BKN042 OVC055 26/24 A2990 RMK AO2 T02600237
KJXI 231315Z AUTO 00000KT 10SM SCT015 BKN055 26/24 A2988 RMK AO2 T02570236
KJXI 231255Z AUTO 20003KT 10SM SCT015 OVC055 26/24 A2986 RMK AO2 T02570236
KJXI 231235Z AUTO 00000KT 10SM BKN017 BKN021 OVC055 26/24 A2985 RMK AO2 T02560237
KJXI 231215Z AUTO 19003KT 10SM SCT017 BKN040 OVC055 26/24 A2985 RMK AO2 T02560236
KJXI 231155Z AUTO 20003KT 10SM SCT018 SCT039 BKN055 26/24 A2985 RMK AO2 T02550237 10280 20254
KJXI 231135Z AUTO 20003KT 10SM SCT017 BKN040 26/24 A2984 RMK AO2 T02550240
KJXI 231115Z AUTO 00000KT 10SM SCT016 BKN038 26/24 A2985 RMK AO2 T02560241
KJXI 231055Z AUTO 00000KT 10SM SCT013 26/24 A2985 RMK AO2 T02560242
KJXI 231035Z AUTO 33006KT 10SM SCT016 SCT110 26/24 A2986 RMK AO2 T02560242
KJXI 231015Z AUTO 17006KT 10SM CLR 26/24 A2983 RMK AO2 T02570243
KJXI 230955Z AUTO 17005KT 10SM TS CLR 26/24 A2984 RMK AO2 T02580243
KJXI 230935Z AUTO 19004KT 10SM CLR 26/24 A2984 RMK AO2 T02600244
KJXI 230915Z AUTO 19003KT 10SM CLR 26/24 A2984 RMK AO2 T02620243
KJXI 230855Z AUTO 00000KT 10SM SCT015 26/24 A2984 RMK AO2 T02620243